createdAt,value
2022-12-13T00:00:20.091Z,0.90
2022-12-13T00:01:22.556Z,0.90
2022-12-13T00:02:27.239Z,1.00
2022-12-13T00:03:29.082Z,1.10
2022-12-13T00:04:32.174Z,1.00
2022-12-13T00:05:34.179Z,0.90
2022-12-13T00:06:36.941Z,0.90
2022-12-13T00:07:39.549Z,0.90
2022-12-13T00:08:41.897Z,0.90
2022-12-13T00:09:44.136Z,1.00
2022-12-13T00:10:46.464Z,0.80
2022-12-13T00:11:50.542Z,1.00
2022-12-13T00:12:52.365Z,1.00
2022-12-13T00:13:55.518Z,0.70
2022-12-13T00:14:57.303Z,0.70
2022-12-13T00:16:01.119Z,0.90
2022-12-13T00:17:02.988Z,0.80
2022-12-13T00:18:04.711Z,0.80
2022-12-13T00:19:06.562Z,0.80
2022-12-13T00:20:09.018Z,0.80
2022-12-13T00:21:18.339Z,0.70
2022-12-13T00:22:20.140Z,0.70
2022-12-13T00:23:22.519Z,0.90
2022-12-13T00:24:24.211Z,0.70
2022-12-13T00:25:26.192Z,0.70
2022-12-13T00:26:31.448Z,0.70
2022-12-13T00:27:33.139Z,0.80
2022-12-13T00:28:34.988Z,0.70
2022-12-13T00:29:36.946Z,0.80
2022-12-13T00:30:40.057Z,0.70
2022-12-13T00:32:00.475Z,0.80
2022-12-13T00:33:02.663Z,0.80
2022-12-13T00:34:04.524Z,0.70
2022-12-13T00:35:06.624Z,0.60
2022-12-13T00:36:09.424Z,0.50
2022-12-13T00:37:11.347Z,0.80
2022-12-13T00:38:13.054Z,0.60
2022-12-13T00:39:16.634Z,0.60
2022-12-13T00:40:18.535Z,0.80
2022-12-13T00:41:20.818Z,0.80
2022-12-13T00:42:22.714Z,0.70
2022-12-13T00:43:24.363Z,0.90
2022-12-13T00:44:26.312Z,0.70
2022-12-13T00:45:28.714Z,0.60
2022-12-13T00:46:31.188Z,0.80
2022-12-13T00:47:33.044Z,0.70
2022-12-13T00:48:34.728Z,0.70
2022-12-13T00:49:36.566Z,0.60
2022-12-13T00:50:38.855Z,0.60
2022-12-13T00:51:40.913Z,0.50
2022-12-13T00:52:42.659Z,0.50
2022-12-13T00:53:44.695Z,0.60
2022-12-13T00:54:46.692Z,0.50
2022-12-13T00:55:51.254Z,0.70
2022-12-13T00:56:53.126Z,0.50
2022-12-13T00:57:55.193Z,0.50
2022-12-13T00:58:58.152Z,0.70
2022-12-13T00:59:59.836Z,0.60
2022-12-13T01:01:06.731Z,0.60
2022-12-13T01:02:08.573Z,0.60
2022-12-13T01:03:20.661Z,0.50
2022-12-13T01:04:22.686Z,0.40
2022-12-13T01:06:02.198Z,0.50
2022-12-13T01:06:50.001Z,0.30
2022-12-13T01:07:51.913Z,0.20
2022-12-13T01:08:53.651Z,0.20
2022-12-13T01:09:58.092Z,0.50
2022-12-13T01:10:59.724Z,0.10
2022-12-13T01:12:06.631Z,0.20
2022-12-13T01:13:08.524Z,0.20
2022-12-13T01:14:10.231Z,0.30
2022-12-13T01:15:12.245Z,0.20
2022-12-13T01:16:15.398Z,0.30
2022-12-13T01:17:17.129Z,0.30
2022-12-13T01:18:19.816Z,0.30
2022-12-13T01:19:23.413Z,0.50
2022-12-13T01:20:25.256Z,0.30
2022-12-13T01:21:26.977Z,0.40
2022-12-13T01:22:31.551Z,0.30
2022-12-13T01:23:34.329Z,0.50
2022-12-13T01:24:36.376Z,0.30
2022-12-13T01:25:39.001Z,0.50
2022-12-13T01:26:41.605Z,0.50
2022-12-13T01:27:43.687Z,0.30
2022-12-13T01:28:45.844Z,0.30
2022-12-13T01:29:47.761Z,0.20
2022-12-13T01:31:01.676Z,0.20
2022-12-13T01:32:04.087Z,0.30
2022-12-13T01:33:14.274Z,0.30
2022-12-13T01:34:19.247Z,0.30
2022-12-13T01:35:20.975Z,0.20
2022-12-13T01:36:27.781Z,0.30
2022-12-13T01:37:31.375Z,0.10
2022-12-13T01:38:39.221Z,0.20
2022-12-13T01:39:40.922Z,0.30
2022-12-13T01:40:47.770Z,0.00
2022-12-13T01:41:59.161Z,0.10
2022-12-13T01:43:02.152Z,0.00
2022-12-13T01:44:59.938Z,0.00
2022-12-13T01:46:01.692Z,0.10
2022-12-13T01:47:03.380Z,0.10
2022-12-13T01:48:08.695Z,0.10
2022-12-13T01:49:20.922Z,0.20
2022-12-13T01:50:27.954Z,0.20
2022-12-13T01:51:40.797Z,0.20
2022-12-13T01:52:44.509Z,0.10
2022-12-13T01:53:48.266Z,0.30
2022-12-13T01:54:52.474Z,0.10
2022-12-13T01:55:58.161Z,-0.10
2022-12-13T01:57:00.737Z,0.30
2022-12-13T01:58:04.842Z,0.00
2022-12-13T01:59:08.024Z,0.20
2022-12-13T02:00:10.949Z,0.10
2022-12-13T02:01:12.730Z,0.40
2022-12-13T02:02:16.416Z,0.30
2022-12-13T02:03:21.862Z,0.20
2022-12-13T02:04:30.663Z,0.20
2022-12-13T02:05:40.525Z,0.40
2022-12-13T02:06:46.769Z,0.40
2022-12-13T02:07:49.075Z,0.30
2022-12-13T02:08:51.116Z,0.20
2022-12-13T02:09:58.809Z,0.20
2022-12-13T02:11:01.786Z,0.20
2022-12-13T02:12:04.316Z,0.40
2022-12-13T02:13:06.512Z,0.40
2022-12-13T02:14:09.800Z,0.20
2022-12-13T02:15:15.251Z,0.20
2022-12-13T02:16:40.607Z,0.30
2022-12-13T02:18:12.476Z,0.20
2022-12-13T02:19:52.041Z,0.20
2022-12-13T02:21:06.221Z,0.10
2022-12-13T02:22:29.804Z,0.10
2022-12-13T02:23:52.596Z,-0.10
2022-12-13T02:25:13.410Z,-0.10
2022-12-13T02:26:24.442Z,0.00
2022-12-13T02:28:00.589Z,0.10
2022-12-13T02:29:02.739Z,-0.10
2022-12-13T02:30:22.752Z,-0.10
2022-12-13T02:31:37.465Z,0.00
2022-12-13T02:33:08.020Z,-0.10
2022-12-13T02:34:17.268Z,-0.20
2022-12-13T02:35:42.503Z,-0.10
2022-12-13T02:36:54.542Z,0.00
2022-12-13T02:38:12.742Z,-0.10
2022-12-13T02:39:29.709Z,0.00
2022-12-13T02:40:34.984Z,0.00
2022-12-13T02:41:52.995Z,0.00
2022-12-13T02:43:21.365Z,0.00
2022-12-13T02:44:28.102Z,-0.10
2022-12-13T02:45:41.931Z,0.10
2022-12-13T02:46:51.383Z,-0.10
2022-12-13T02:47:55.755Z,0.00
2022-12-13T02:48:59.825Z,0.00
2022-12-13T02:50:06.096Z,-0.20
2022-12-13T02:51:10.767Z,-0.10
2022-12-13T02:52:15.394Z,0.00
2022-12-13T02:53:28.026Z,-0.10
2022-12-13T02:54:31.204Z,-0.10
2022-12-13T02:55:36.022Z,-0.10
2022-12-13T02:56:39.444Z,0.00
2022-12-13T02:57:44.807Z,-0.10
2022-12-13T02:58:51.264Z,0.00
2022-12-13T02:59:52.946Z,-0.10
2022-12-13T03:01:04.793Z,0.00
2022-12-13T03:02:45.459Z,0.00
2022-12-13T03:03:52.559Z,-0.20
2022-12-13T03:05:16.002Z,0.00
2022-12-13T03:06:33.336Z,-0.10
2022-12-13T03:07:52.341Z,-0.10
2022-12-13T03:09:20.480Z,-0.20
2022-12-13T03:10:30.177Z,0.00
2022-12-13T03:11:52.139Z,-0.10
2022-12-13T03:13:20.300Z,-0.10
2022-12-13T03:14:23.781Z,0.10
2022-12-13T03:15:53.167Z,0.00
2022-12-13T03:16:55.711Z,-0.10
2022-12-13T03:18:19.608Z,-0.20
2022-12-13T03:19:21.891Z,-0.10
2022-12-13T03:20:27.052Z,-0.10
2022-12-13T03:21:28.893Z,-0.10
2022-12-13T03:22:34.628Z,-0.30
2022-12-13T03:23:44.220Z,-0.10
2022-12-13T03:24:49.476Z,-0.30
2022-12-13T03:25:55.297Z,0.00
2022-12-13T03:26:57.177Z,-0.40
2022-12-13T03:28:01.208Z,-0.30
2022-12-13T03:29:03.889Z,0.00
2022-12-13T03:30:06.235Z,-0.10
2022-12-13T03:31:08.929Z,-0.30
2022-12-13T03:32:10.645Z,-0.10
2022-12-13T03:33:13.583Z,-0.10
2022-12-13T03:34:15.412Z,-0.10
2022-12-13T03:35:34.145Z,-0.20
2022-12-13T03:36:48.408Z,-0.20
2022-12-13T03:37:50.799Z,0.00
2022-12-13T03:38:54.299Z,-0.10
2022-12-13T03:39:56.940Z,-0.30
2022-12-13T03:41:10.083Z,-0.20
2022-12-13T03:42:12.162Z,-0.20
2022-12-13T03:43:14.054Z,-0.20
2022-12-13T03:44:24.284Z,-0.20
2022-12-13T03:45:33.300Z,0.00
2022-12-13T03:46:35.379Z,-0.10
2022-12-13T03:47:38.159Z,-0.20
2022-12-13T03:48:39.850Z,-0.10
2022-12-13T03:49:41.573Z,-0.30
2022-12-13T03:50:43.247Z,-0.20
2022-12-13T03:51:45.880Z,-0.10
2022-12-13T03:52:48.058Z,-0.20
2022-12-13T03:53:49.858Z,-0.10
2022-12-13T03:54:52.947Z,-0.20
2022-12-13T03:55:54.647Z,-0.30
2022-12-13T03:56:56.259Z,-0.20
2022-12-13T03:58:00.835Z,-0.20
2022-12-13T03:59:05.314Z,-0.20
2022-12-13T04:00:07.814Z,-0.20
2022-12-13T04:01:16.898Z,0.00
2022-12-13T04:02:31.174Z,-0.30
2022-12-13T04:03:33.552Z,0.00
2022-12-13T04:04:35.203Z,-0.20
2022-12-13T04:05:36.889Z,-0.20
2022-12-13T04:06:38.870Z,-0.30
2022-12-13T04:07:48.208Z,-0.10
2022-12-13T04:08:52.254Z,-0.30
2022-12-13T04:09:53.978Z,-0.10
2022-12-13T04:10:55.654Z,-0.20
2022-12-13T04:12:16.214Z,-0.30
2022-12-13T04:13:33.338Z,-0.50
2022-12-13T04:14:35.068Z,-0.20
2022-12-13T04:15:36.920Z,-0.20
2022-12-13T04:16:41.726Z,-0.20
2022-12-13T04:17:43.503Z,-0.40
2022-12-13T04:18:53.143Z,-0.40
2022-12-13T04:19:54.832Z,-0.30
2022-12-13T04:20:58.293Z,-0.30
2022-12-13T04:22:00.099Z,-0.20
2022-12-13T04:23:10.586Z,-0.40
2022-12-13T04:24:12.512Z,-0.30
2022-12-13T04:25:14.437Z,-0.30
2022-12-13T04:26:16.496Z,-0.30
2022-12-13T04:27:18.450Z,-0.20
2022-12-13T04:28:22.478Z,-0.40
2022-12-13T04:29:24.701Z,-0.30
2022-12-13T04:30:27.968Z,-0.40
2022-12-13T04:31:29.649Z,-0.30
2022-12-13T04:32:31.553Z,-0.50
2022-12-13T04:33:33.482Z,-0.20
2022-12-13T04:34:37.722Z,-0.30
2022-12-13T04:35:39.693Z,-0.40
2022-12-13T04:36:41.946Z,-0.30
2022-12-13T04:37:43.650Z,-0.50
2022-12-13T04:38:46.063Z,-0.30
2022-12-13T04:39:49.568Z,-0.20
2022-12-13T04:40:51.238Z,-0.50
2022-12-13T04:41:53.758Z,-0.50
2022-12-13T04:42:55.583Z,-0.60
2022-12-13T04:43:57.491Z,-0.40
2022-12-13T04:44:59.115Z,-0.50
2022-12-13T04:46:00.789Z,-0.50
2022-12-13T04:47:02.865Z,-0.50
2022-12-13T04:48:05.314Z,-0.20
2022-12-13T04:49:07.116Z,-0.30
2022-12-13T04:50:09.031Z,-0.60
2022-12-13T04:51:10.937Z,-0.60
2022-12-13T04:52:13.027Z,-0.60
2022-12-13T04:53:24.499Z,-0.60
2022-12-13T04:54:26.192Z,-0.60
2022-12-13T04:55:28.229Z,-0.50
2022-12-13T04:56:29.841Z,-0.50
2022-12-13T04:57:35.767Z,-0.40
2022-12-13T04:58:37.530Z,-0.60
2022-12-13T04:59:39.571Z,-0.30
2022-12-13T05:00:44.346Z,-0.40
2022-12-13T05:01:46.242Z,-0.30
2022-12-13T05:02:48.258Z,-0.60
2022-12-13T05:03:49.978Z,-0.50
2022-12-13T05:04:54.543Z,-0.40
2022-12-13T05:05:57.612Z,-0.50
2022-12-13T05:06:59.477Z,-0.50
2022-12-13T05:08:01.114Z,-0.40
2022-12-13T05:09:02.822Z,-0.50
2022-12-13T05:10:32.168Z,-0.40
2022-12-13T05:11:35.385Z,-0.40
2022-12-13T05:12:37.896Z,-0.50
2022-12-13T05:13:39.972Z,-0.50
2022-12-13T05:14:43.118Z,-0.50
2022-12-13T05:15:47.451Z,-0.50
2022-12-13T05:16:52.450Z,-0.50
2022-12-13T05:17:56.141Z,-0.60
2022-12-13T05:19:00.080Z,-0.50
2022-12-13T05:20:02.075Z,-0.40
2022-12-13T05:21:08.300Z,-0.40
2022-12-13T05:22:19.700Z,-0.40
2022-12-13T05:23:24.111Z,-0.50
2022-12-13T05:24:25.841Z,-0.30
2022-12-13T05:25:28.301Z,-0.50
2022-12-13T05:26:30.211Z,-0.40
2022-12-13T05:27:31.992Z,-0.40
2022-12-13T05:28:33.779Z,-0.50
2022-12-13T05:29:36.336Z,-0.60
2022-12-13T05:30:44.459Z,-0.50
2022-12-13T05:31:46.171Z,-0.30
2022-12-13T05:32:48.042Z,-0.30
2022-12-13T05:33:50.133Z,-0.50
2022-12-13T05:34:51.871Z,-0.40
2022-12-13T05:35:57.808Z,-0.30
2022-12-13T05:37:02.444Z,-0.30
2022-12-13T05:38:04.978Z,-0.30
2022-12-13T05:39:06.675Z,-0.30
2022-12-13T05:40:30.966Z,-0.40
2022-12-13T05:41:36.807Z,-0.20
2022-12-13T05:42:39.179Z,-0.30
2022-12-13T05:43:42.225Z,-0.20
2022-12-13T05:44:45.071Z,-0.30
2022-12-13T05:45:46.908Z,-0.30
2022-12-13T05:46:48.684Z,-0.40
2022-12-13T05:47:50.980Z,-0.40
2022-12-13T05:48:52.584Z,-0.40
2022-12-13T05:49:54.451Z,-0.60
2022-12-13T05:51:10.514Z,-0.60
2022-12-13T05:52:30.649Z,-0.40
2022-12-13T05:53:33.000Z,-0.50
2022-12-13T05:54:36.054Z,-0.50
2022-12-13T05:55:40.972Z,-0.60
2022-12-13T05:56:42.786Z,-0.50
2022-12-13T05:57:50.762Z,-0.60
2022-12-13T05:58:54.316Z,-0.80
2022-12-13T05:59:56.248Z,-0.70
2022-12-13T06:01:11.062Z,-0.90
2022-12-13T06:02:16.874Z,-0.80
2022-12-13T06:03:23.581Z,-0.80
2022-12-13T06:04:25.402Z,-0.60
2022-12-13T06:05:33.068Z,-0.60
2022-12-13T06:06:34.747Z,-0.80
2022-12-13T06:07:37.051Z,-0.80
2022-12-13T06:08:39.930Z,-0.60
2022-12-13T06:09:42.145Z,-0.80
2022-12-13T06:10:43.969Z,-0.80
2022-12-13T06:11:51.537Z,-0.90
2022-12-13T06:12:53.358Z,-0.80
2022-12-13T06:14:02.827Z,-0.60
2022-12-13T06:15:05.553Z,-0.80
2022-12-13T06:16:25.017Z,-0.80
2022-12-13T06:17:30.147Z,-0.80
2022-12-13T06:18:34.728Z,-0.80
2022-12-13T06:19:36.418Z,-0.50
2022-12-13T06:20:38.974Z,-0.80
2022-12-13T06:21:45.725Z,-0.80
2022-12-13T06:22:49.296Z,-0.40
2022-12-13T06:23:50.929Z,-0.70
2022-12-13T06:24:53.188Z,-0.50
2022-12-13T06:25:54.837Z,-0.60
2022-12-13T06:26:56.576Z,-0.70
2022-12-13T06:27:58.364Z,-0.60
2022-12-13T06:29:02.656Z,-0.50
2022-12-13T06:30:05.084Z,-0.40
2022-12-13T06:31:06.745Z,-0.40
2022-12-13T06:32:08.647Z,-0.50
2022-12-13T06:33:13.237Z,-0.60
2022-12-13T06:34:15.481Z,-0.50
2022-12-13T06:35:28.884Z,-0.30
2022-12-13T06:36:31.434Z,-0.50
2022-12-13T06:37:33.066Z,-0.40
2022-12-13T06:38:34.705Z,-0.50
2022-12-13T06:39:45.290Z,-0.40
2022-12-13T06:40:47.494Z,-0.50
2022-12-13T06:41:50.684Z,-0.50
2022-12-13T06:42:52.377Z,-0.40
2022-12-13T06:43:55.637Z,-0.60
2022-12-13T06:44:58.260Z,-0.40
2022-12-13T06:45:59.911Z,-0.40
2022-12-13T06:47:11.659Z,-0.50
2022-12-13T06:48:20.107Z,-0.60
2022-12-13T06:49:22.256Z,-0.40
2022-12-13T06:50:24.149Z,-0.50
2022-12-13T06:51:32.404Z,-0.60
2022-12-13T06:52:36.759Z,-0.60
2022-12-13T06:53:39.983Z,-0.60
2022-12-13T06:54:42.728Z,-0.60
2022-12-13T06:55:44.427Z,-0.80
2022-12-13T06:56:46.070Z,-0.70
2022-12-13T06:57:50.344Z,-0.60
2022-12-13T06:58:52.364Z,-0.60
2022-12-13T07:00:05.267Z,-0.60
2022-12-13T07:01:14.896Z,-0.70
2022-12-13T07:02:26.265Z,-0.90
2022-12-13T07:03:28.234Z,-0.70
2022-12-13T07:04:31.116Z,-0.80
2022-12-13T07:05:33.091Z,-0.80
2022-12-13T07:06:35.735Z,-0.70
2022-12-13T07:07:37.555Z,-0.80
2022-12-13T07:08:39.577Z,-0.60
2022-12-13T07:09:41.304Z,-0.70
2022-12-13T07:10:43.343Z,-1.00
2022-12-13T07:11:50.008Z,-0.80
2022-12-13T07:12:53.499Z,-0.70
2022-12-13T07:13:56.020Z,-0.70
2022-12-13T07:14:58.194Z,-0.90
2022-12-13T07:16:00.832Z,-0.80
2022-12-13T07:17:03.876Z,-0.60
2022-12-13T07:18:05.658Z,-0.70
2022-12-13T07:19:22.552Z,-0.80
2022-12-13T07:20:26.206Z,-0.80
2022-12-13T07:21:29.053Z,-0.70
2022-12-13T07:22:34.547Z,-0.60
2022-12-13T07:23:37.922Z,-0.60
2022-12-13T07:24:39.790Z,-0.80
2022-12-13T07:25:41.964Z,-0.60
2022-12-13T07:26:43.681Z,-0.70
2022-12-13T07:27:46.315Z,-0.80
2022-12-13T07:28:52.926Z,-0.50
2022-12-13T07:29:58.145Z,-0.50
2022-12-13T07:31:04.365Z,-0.70
2022-12-13T07:32:06.087Z,-0.50
2022-12-13T07:33:10.250Z,-0.60
2022-12-13T07:34:15.828Z,-0.60
2022-12-13T07:35:17.926Z,-0.60
2022-12-13T07:36:21.908Z,-0.60
2022-12-13T07:37:30.337Z,-0.50
2022-12-13T07:38:36.225Z,-0.70
2022-12-13T07:39:37.949Z,-0.70
2022-12-13T07:40:40.736Z,-0.70
2022-12-13T07:41:43.497Z,-0.70
2022-12-13T07:42:55.818Z,-0.60
2022-12-13T07:43:57.483Z,-0.40
2022-12-13T07:45:00.647Z,-0.70
2022-12-13T07:46:04.811Z,-0.80
2022-12-13T07:47:06.496Z,-0.80
2022-12-13T07:48:08.784Z,-0.60
2022-12-13T07:49:12.554Z,-0.90
2022-12-13T07:50:36.850Z,-0.80
2022-12-13T07:51:37.186Z,-0.80
2022-12-13T07:52:40.488Z,-0.90
2022-12-13T07:53:42.416Z,-1.00
2022-12-13T07:54:44.199Z,-0.90
2022-12-13T07:55:48.845Z,-1.10
2022-12-13T07:56:50.486Z,-1.00
2022-12-13T07:57:53.557Z,-1.10
2022-12-13T07:58:55.576Z,-1.00
2022-12-13T07:59:58.182Z,-0.80
2022-12-13T08:01:04.500Z,-1.20
2022-12-13T08:02:14.970Z,-1.10
2022-12-13T08:03:25.021Z,-1.10
2022-12-13T08:04:28.079Z,-1.20
2022-12-13T08:05:29.966Z,-1.20
2022-12-13T08:06:40.824Z,-1.30
2022-12-13T08:07:45.285Z,-1.10
2022-12-13T08:08:50.661Z,-1.10
2022-12-13T08:09:53.161Z,-0.90
2022-12-13T08:10:55.284Z,-1.10
2022-12-13T08:12:05.327Z,-1.00
2022-12-13T08:13:07.321Z,-0.90
2022-12-13T08:14:09.096Z,-1.00
2022-12-13T08:15:14.201Z,-1.00
2022-12-13T08:16:26.117Z,-1.00
2022-12-13T08:17:31.054Z,-1.10
2022-12-13T08:18:33.012Z,-1.00
2022-12-13T08:19:34.672Z,-1.00
2022-12-13T08:20:39.445Z,-1.20
2022-12-13T08:22:02.053Z,-0.90
2022-12-13T08:23:03.829Z,-1.10
2022-12-13T08:24:05.672Z,-1.00
2022-12-13T08:25:08.180Z,-1.00
2022-12-13T08:26:09.825Z,-0.90
2022-12-13T08:27:11.467Z,-0.80
2022-12-13T08:28:13.316Z,-0.80
2022-12-13T08:29:23.315Z,-0.60
2022-12-13T08:30:36.497Z,-0.60
2022-12-13T08:31:38.776Z,-0.50
2022-12-13T08:32:40.501Z,-0.60
2022-12-13T08:33:43.766Z,-0.50
2022-12-13T08:34:45.809Z,-0.50
2022-12-13T08:35:47.933Z,-0.50
2022-12-13T08:36:49.616Z,-0.40
2022-12-13T08:37:51.279Z,-0.20
2022-12-13T08:38:56.082Z,-0.20
2022-12-13T08:39:57.897Z,-0.40
2022-12-13T08:41:01.470Z,-0.40
2022-12-13T08:42:16.812Z,-0.20
2022-12-13T08:43:43.187Z,-0.30
2022-12-13T08:44:53.005Z,-0.10
2022-12-13T08:45:54.784Z,-0.30
2022-12-13T08:47:03.324Z,-0.10
2022-12-13T08:48:05.361Z,-0.20
2022-12-13T08:49:07.356Z,-0.20
2022-12-13T08:50:11.892Z,0.00
2022-12-13T08:51:15.683Z,-0.10
2022-12-13T08:52:26.756Z,0.00
2022-12-13T08:53:30.982Z,0.00
2022-12-13T08:54:44.288Z,0.00
2022-12-13T08:55:45.997Z,0.00
2022-12-13T08:56:47.759Z,0.00
2022-12-13T08:57:49.671Z,0.10
2022-12-13T08:58:51.628Z,0.00
2022-12-13T08:59:54.553Z,0.00
2022-12-13T09:00:56.715Z,0.10
2022-12-13T09:02:04.783Z,0.00
2022-12-13T09:03:10.144Z,0.20
2022-12-13T09:04:12.242Z,0.20
2022-12-13T09:05:32.930Z,0.10
2022-12-13T09:06:37.252Z,0.10
2022-12-13T09:07:42.970Z,0.10
2022-12-13T09:08:45.113Z,0.30
2022-12-13T09:09:54.812Z,0.20
2022-12-13T09:11:00.691Z,0.30
2022-12-13T09:12:02.471Z,0.20
2022-12-13T09:13:32.523Z,0.30
2022-12-13T09:14:35.688Z,-0.20
2022-12-13T09:15:39.479Z,0.20
2022-12-13T09:16:50.976Z,0.30
2022-12-13T09:17:53.771Z,0.20
2022-12-13T09:18:56.225Z,0.30
2022-12-13T09:20:10.327Z,0.20
2022-12-13T09:21:31.399Z,0.10
2022-12-13T09:22:35.192Z,0.10
2022-12-13T09:23:37.742Z,0.10
2022-12-13T09:24:50.014Z,0.30
2022-12-13T09:25:56.072Z,0.20
2022-12-13T09:27:10.262Z,0.20
2022-12-13T09:28:12.266Z,0.30
2022-12-13T09:29:16.401Z,0.10
2022-12-13T09:30:18.120Z,0.20
2022-12-13T09:31:20.780Z,0.40
2022-12-13T09:32:22.732Z,0.20
2022-12-13T09:33:30.632Z,0.30
2022-12-13T09:34:36.461Z,0.30
2022-12-13T09:35:39.262Z,0.60
2022-12-13T09:36:42.313Z,0.40
2022-12-13T09:37:46.014Z,0.30
2022-12-13T09:38:48.654Z,0.40
2022-12-13T09:39:55.173Z,0.40
2022-12-13T09:41:01.602Z,0.40
2022-12-13T09:42:10.332Z,0.30
2022-12-13T09:43:22.012Z,0.40
2022-12-13T09:44:54.433Z,0.30
2022-12-13T09:46:13.365Z,0.50
2022-12-13T09:47:47.209Z,0.40
2022-12-13T09:48:52.630Z,0.50
2022-12-13T09:49:54.423Z,0.50
2022-12-13T09:51:17.173Z,0.60
2022-12-13T09:52:21.301Z,0.50
2022-12-13T09:53:25.608Z,0.50
2022-12-13T09:54:36.504Z,0.50
2022-12-13T09:55:42.021Z,0.50
2022-12-13T09:56:44.666Z,0.60
2022-12-13T09:57:49.834Z,0.70
2022-12-13T09:58:55.463Z,0.80
2022-12-13T10:00:01.406Z,0.70
2022-12-13T10:01:06.036Z,0.90
2022-12-13T10:02:17.576Z,0.80
2022-12-13T10:03:24.420Z,0.90
2022-12-13T10:04:28.867Z,0.60
2022-12-13T10:05:35.899Z,0.70
2022-12-13T10:06:41.326Z,0.70
2022-12-13T10:07:43.614Z,0.90
2022-12-13T10:08:57.293Z,0.60
2022-12-13T10:10:01.567Z,0.90
2022-12-13T10:11:03.763Z,0.70
2022-12-13T10:12:05.965Z,0.60
2022-12-13T10:13:29.496Z,0.60
2022-12-13T10:14:39.654Z,0.70
2022-12-13T10:15:44.604Z,0.70
2022-12-13T10:16:53.177Z,0.80
2022-12-13T10:17:55.987Z,0.90
2022-12-13T10:18:57.919Z,0.90
2022-12-13T10:19:59.865Z,1.00
2022-12-13T10:21:06.931Z,0.70
2022-12-13T10:22:17.694Z,0.80
2022-12-13T10:23:52.927Z,0.90
2022-12-13T10:25:04.703Z,0.70
2022-12-13T10:26:23.721Z,1.00
2022-12-13T10:27:40.684Z,1.00
2022-12-13T10:28:44.365Z,0.90
2022-12-13T10:30:07.706Z,0.90
2022-12-13T10:31:15.777Z,0.80
2022-12-13T10:32:19.308Z,1.00
2022-12-13T10:33:34.347Z,0.70
2022-12-13T10:34:39.052Z,1.00
2022-12-13T10:35:41.618Z,1.00
2022-12-13T10:36:43.824Z,1.00
2022-12-13T10:37:46.293Z,1.00
2022-12-13T10:38:49.355Z,0.90
2022-12-13T10:39:52.164Z,0.90
2022-12-13T10:40:54.144Z,1.00
2022-12-13T10:42:05.789Z,1.20
2022-12-13T10:43:07.775Z,1.00
2022-12-13T10:44:19.351Z,1.30
2022-12-13T10:45:23.373Z,1.10
2022-12-13T10:46:26.105Z,0.70
2022-12-13T10:47:28.038Z,1.10
2022-12-13T10:48:47.280Z,1.10
2022-12-13T10:49:59.387Z,0.70
2022-12-13T10:51:05.735Z,1.30
2022-12-13T10:52:30.900Z,1.40
2022-12-13T10:53:42.451Z,0.90
2022-12-13T10:54:50.340Z,1.20
2022-12-13T10:55:56.195Z,1.30
2022-12-13T10:57:04.573Z,1.50
2022-12-13T10:58:09.404Z,1.30
2022-12-13T10:59:36.915Z,1.40
2022-12-13T11:00:46.940Z,1.30
2022-12-13T11:01:48.881Z,1.50
2022-12-13T11:02:56.942Z,1.40
2022-12-13T11:04:25.384Z,1.30
2022-12-13T11:05:33.448Z,1.40
2022-12-13T11:06:44.269Z,1.40
2022-12-13T11:07:47.109Z,0.80
2022-12-13T11:08:50.324Z,1.30
2022-12-13T11:09:53.076Z,1.50
2022-12-13T11:11:03.784Z,1.20
2022-12-13T11:12:14.527Z,1.40
2022-12-13T11:13:31.853Z,1.50
2022-12-13T11:14:40.310Z,1.50
2022-12-13T11:15:45.484Z,1.60
2022-12-13T11:16:59.772Z,1.50
2022-12-13T11:18:07.665Z,1.60
2022-12-13T11:19:20.955Z,1.70
2022-12-13T11:20:27.230Z,1.50
2022-12-13T11:21:32.500Z,1.40
2022-12-13T11:22:38.877Z,1.80
2022-12-13T11:23:44.918Z,1.60
2022-12-13T11:24:52.298Z,1.60
2022-12-13T11:26:00.603Z,1.80
2022-12-13T11:27:19.864Z,1.80
2022-12-13T11:28:58.646Z,1.70
2022-12-13T11:30:33.259Z,1.70
2022-12-13T11:32:03.772Z,1.70
2022-12-13T11:33:48.934Z,1.70
2022-12-13T11:34:53.513Z,1.80
2022-12-13T11:36:22.307Z,1.70
2022-12-13T11:37:33.060Z,1.70
2022-12-13T11:38:58.085Z,1.80
2022-12-13T11:40:11.941Z,2.00
2022-12-13T11:41:31.347Z,1.80
2022-12-13T11:43:06.535Z,2.00
2022-12-13T11:44:49.857Z,1.90
2022-12-13T11:46:01.526Z,1.90
2022-12-13T11:47:07.186Z,2.10
2022-12-13T11:48:30.058Z,1.90
2022-12-13T11:49:43.200Z,1.90
2022-12-13T11:50:50.984Z,2.00
2022-12-13T11:51:59.878Z,2.10
2022-12-13T11:53:33.113Z,1.90
2022-12-13T11:54:44.449Z,2.20
2022-12-13T11:55:57.939Z,2.00
2022-12-13T11:57:08.259Z,2.10
2022-12-13T11:59:00.723Z,2.10
2022-12-13T11:59:52.626Z,2.20
2022-12-13T12:01:15.608Z,2.00
2022-12-13T12:02:25.813Z,2.00
2022-12-13T12:03:43.328Z,2.00
2022-12-13T12:05:00.783Z,2.20
2022-12-13T12:06:35.021Z,2.10
2022-12-13T12:08:12.752Z,2.10
2022-12-13T12:09:14.316Z,2.10
2022-12-13T12:10:29.054Z,2.20
2022-12-13T12:11:34.518Z,2.10
2022-12-13T12:12:38.075Z,2.10
2022-12-13T12:13:50.852Z,2.20
2022-12-13T12:14:56.426Z,2.10
2022-12-13T12:16:21.062Z,2.10
2022-12-13T12:17:37.829Z,2.20
2022-12-13T12:18:44.389Z,2.20
2022-12-13T12:19:52.675Z,2.20
2022-12-13T12:21:21.599Z,2.20
2022-12-13T12:22:51.323Z,2.20
2022-12-13T12:24:07.069Z,2.20
2022-12-13T12:25:30.727Z,2.40
2022-12-13T12:26:50.579Z,2.30
2022-12-13T12:28:32.732Z,2.30
2022-12-13T12:29:53.378Z,2.30
2022-12-13T12:31:20.226Z,2.30
2022-12-13T12:32:33.629Z,2.30
2022-12-13T12:34:05.582Z,2.20
2022-12-13T12:35:18.575Z,2.20
2022-12-13T12:36:39.760Z,2.40
2022-12-13T12:38:06.890Z,2.40
2022-12-13T12:39:33.696Z,2.40
2022-12-13T12:41:15.524Z,2.40
2022-12-13T12:42:50.240Z,2.40
2022-12-13T12:44:30.586Z,2.60
2022-12-13T12:46:11.561Z,2.50
2022-12-13T12:47:57.607Z,2.40
2022-12-13T12:49:21.711Z,2.50
2022-12-13T12:50:36.953Z,2.60
2022-12-13T12:52:12.074Z,2.50
2022-12-13T12:53:38.458Z,2.50
2022-12-13T12:55:02.805Z,2.50
2022-12-13T12:56:38.862Z,2.60
2022-12-13T12:58:08.294Z,2.60
2022-12-13T12:59:49.240Z,2.60
2022-12-13T13:01:15.793Z,2.60
2022-12-13T13:02:26.728Z,2.80
2022-12-13T13:03:31.374Z,2.70
2022-12-13T13:04:39.463Z,2.60
2022-12-13T13:05:47.835Z,2.60
2022-12-13T13:07:01.678Z,2.80
2022-12-13T13:08:20.472Z,2.60
2022-12-13T13:09:25.273Z,2.70
2022-12-13T13:10:28.542Z,2.70
2022-12-13T13:11:42.749Z,2.80
2022-12-13T13:12:45.661Z,2.80
2022-12-13T13:14:01.385Z,2.50
2022-12-13T13:15:49.008Z,2.80
2022-12-13T13:16:50.886Z,3.00
2022-12-13T13:17:53.146Z,2.90
2022-12-13T13:18:57.104Z,2.90
2022-12-13T13:20:24.874Z,2.90
2022-12-13T13:21:30.571Z,2.90
2022-12-13T13:22:42.873Z,3.00
2022-12-13T13:23:46.684Z,3.00
2022-12-13T13:25:01.026Z,3.00
2022-12-13T13:27:31.393Z,3.00
2022-12-13T13:28:33.117Z,3.00
2022-12-13T13:29:43.993Z,3.00
2022-12-13T13:31:08.294Z,3.00
2022-12-13T13:32:28.406Z,3.00
2022-12-13T13:33:51.770Z,3.00
2022-12-13T13:35:00.607Z,3.10
2022-12-13T13:36:03.378Z,3.10
2022-12-13T13:37:43.820Z,2.60
2022-12-13T13:38:53.035Z,3.10
2022-12-13T13:40:11.181Z,3.10
2022-12-13T13:41:50.364Z,3.10
2022-12-13T13:43:13.736Z,3.10
2022-12-13T13:44:35.718Z,3.10
2022-12-13T13:45:49.587Z,3.10
2022-12-13T13:47:13.192Z,3.00
2022-12-13T13:48:53.776Z,3.10
2022-12-13T13:50:24.082Z,3.00
2022-12-13T13:52:24.323Z,3.10
2022-12-13T13:53:35.313Z,2.70
2022-12-13T13:55:16.277Z,3.10
2022-12-13T13:56:37.350Z,3.10
2022-12-13T13:58:09.273Z,3.10
2022-12-13T13:59:30.508Z,3.10
2022-12-13T14:00:56.769Z,3.10
2022-12-13T14:02:21.108Z,2.90
2022-12-13T14:03:56.299Z,3.10
2022-12-13T14:05:22.851Z,3.10
2022-12-13T14:06:52.681Z,3.10
2022-12-13T14:08:35.896Z,3.20
2022-12-13T14:09:56.393Z,3.20
2022-12-13T14:11:25.823Z,3.20
2022-12-13T14:13:03.518Z,3.20
2022-12-13T14:14:43.583Z,3.20
2022-12-13T14:16:13.360Z,3.30
2022-12-13T14:19:37.883Z,3.30
2022-12-13T14:21:04.885Z,3.30
2022-12-13T14:22:21.813Z,3.30
2022-12-13T14:26:02.261Z,3.30
2022-12-13T14:27:11.352Z,3.30
2022-12-13T14:28:38.928Z,3.30
2022-12-13T14:30:02.064Z,3.30
2022-12-13T14:31:29.883Z,3.30
2022-12-13T14:32:36.104Z,3.30
2022-12-13T14:33:43.659Z,3.30
2022-12-13T14:34:49.819Z,3.30
2022-12-13T14:35:57.300Z,3.30
2022-12-13T14:37:01.624Z,3.30
2022-12-13T14:38:20.119Z,3.00
2022-12-13T14:39:25.127Z,3.30
2022-12-13T14:40:37.872Z,3.30
2022-12-13T14:41:57.173Z,3.30
2022-12-13T14:43:00.107Z,3.30
2022-12-13T14:44:34.647Z,3.40
2022-12-13T14:45:38.642Z,3.30
2022-12-13T14:47:07.026Z,3.40
2022-12-13T14:48:28.376Z,3.30
2022-12-13T14:49:38.547Z,3.30
2022-12-13T14:50:44.179Z,3.40
2022-12-13T14:51:48.260Z,3.30
2022-12-13T14:52:50.959Z,3.40
2022-12-13T14:53:53.710Z,3.30
2022-12-13T14:55:01.885Z,3.30
2022-12-13T14:56:28.080Z,3.40
2022-12-13T14:57:33.005Z,3.40
2022-12-13T14:58:37.294Z,3.40
2022-12-13T14:59:50.590Z,3.40
2022-12-13T15:00:52.688Z,3.40
2022-12-13T15:01:57.435Z,3.00
2022-12-13T15:03:01.945Z,3.40
2022-12-13T15:04:37.949Z,3.10
2022-12-13T15:05:48.775Z,3.40
2022-12-13T15:07:00.468Z,3.50
2022-12-13T15:08:10.280Z,3.50
2022-12-13T15:09:14.723Z,3.30
2022-12-13T15:10:22.428Z,3.40